createdAt,value
2017-06-27T00:02:11.701Z,72.90
2017-06-27T00:04:37.741Z,73.30
2017-06-27T00:07:03.788Z,73.40
2017-06-27T00:09:29.848Z,73.60
2017-06-27T00:11:55.882Z,73.90
2017-06-27T00:14:21.920Z,74.00
2017-06-27T00:16:48.681Z,74.30
2017-06-27T00:19:14.736Z,74.30
2017-06-27T00:21:40.769Z,74.10
2017-06-27T00:24:06.872Z,74.40
2017-06-27T00:26:33.668Z,74.10
2017-06-27T00:28:59.732Z,74.10
2017-06-27T00:31:25.765Z,74.30
2017-06-27T00:33:51.817Z,74.60
2017-06-27T00:36:17.845Z,74.90
2017-06-27T00:38:44.140Z,74.90
2017-06-27T00:41:10.181Z,74.30
2017-06-27T00:43:36.229Z,74.50
2017-06-27T00:46:02.281Z,74.10
2017-06-27T00:48:29.056Z,75.30
2017-06-27T00:50:55.112Z,74.60
2017-06-27T00:53:21.153Z,74.50
2017-06-27T00:55:47.181Z,74.30
2017-06-27T00:58:13.212Z,74.30
2017-06-27T01:00:39.304Z,74.20
2017-06-27T01:03:05.353Z,74.50
2017-06-27T01:05:31.381Z,74.50
2017-06-27T01:07:57.416Z,74.30
2017-06-27T01:10:23.472Z,74.80
2017-06-27T01:12:50.289Z,74.90
2017-06-27T01:15:17.097Z,75.40
2017-06-27T01:17:43.148Z,75.40
2017-06-27T01:20:09.177Z,74.80
2017-06-27T01:22:35.213Z,74.70
2017-06-27T01:25:01.264Z,75.40
2017-06-27T01:27:28.045Z,74.40
2017-06-27T01:29:54.077Z,74.40
2017-06-27T01:32:20.125Z,74.80
2017-06-27T01:34:46.179Z,74.90
2017-06-27T01:37:12.221Z,75.00
2017-06-27T01:39:38.249Z,74.80
2017-06-27T01:42:04.292Z,75.50
2017-06-27T01:44:30.389Z,75.30
2017-06-27T01:46:56.437Z,75.40
2017-06-27T01:49:22.485Z,75.00
2017-06-27T01:51:48.544Z,75.60
2017-06-27T01:54:14.577Z,75.60
2017-06-27T01:56:40.621Z,75.60
2017-06-27T01:59:06.688Z,75.70
2017-06-27T02:01:32.773Z,75.80
2017-06-27T02:03:58.849Z,75.80
2017-06-27T02:06:24.892Z,75.80
2017-06-27T02:08:50.940Z,75.90
2017-06-27T02:11:17.747Z,76.00
2017-06-27T02:13:43.793Z,75.90
2017-06-27T02:16:10.589Z,76.00
2017-06-27T02:18:36.656Z,75.90
2017-06-27T02:21:02.716Z,76.30
2017-06-27T02:23:28.793Z,76.50
2017-06-27T02:25:54.856Z,77.10
2017-06-27T02:28:20.905Z,76.60
2017-06-27T02:30:46.965Z,76.50
2017-06-27T02:33:13.053Z,76.60
2017-06-27T02:35:39.097Z,77.10
2017-06-27T02:38:05.166Z,76.80
2017-06-27T02:40:31.205Z,76.60
2017-06-27T02:42:58.009Z,76.60
2017-06-27T02:45:24.050Z,76.50
2017-06-27T02:47:50.816Z,76.90
2017-06-27T02:50:16.873Z,76.80
2017-06-27T02:52:43.646Z,77.30
2017-06-27T02:55:09.709Z,77.20
2017-06-27T02:57:35.733Z,77.10
2017-06-27T03:00:01.833Z,77.50
2017-06-27T03:02:27.916Z,77.60
2017-06-27T03:04:53.957Z,77.80
2017-06-27T03:07:19.998Z,77.60
2017-06-27T03:09:46.077Z,78.10
2017-06-27T03:12:12.126Z,78.10
2017-06-27T03:14:38.197Z,78.20
2017-06-27T03:17:04.254Z,78.10
2017-06-27T03:19:30.341Z,77.30
2017-06-27T03:21:56.401Z,78.10
2017-06-27T03:24:23.172Z,78.70
2017-06-27T03:26:49.201Z,78.40
2017-06-27T03:29:15.265Z,78.80
2017-06-27T03:31:41.306Z,78.80
2017-06-27T03:34:07.346Z,79.00
2017-06-27T03:36:33.380Z,79.20
2017-06-27T03:38:59.465Z,79.50
2017-06-27T03:41:25.516Z,79.30
2017-06-27T03:43:51.582Z,79.50
2017-06-27T03:46:17.620Z,79.30
2017-06-27T03:48:44.385Z,79.70
2017-06-27T03:51:10.436Z,79.70
2017-06-27T03:53:36.492Z,79.00
2017-06-27T03:56:02.517Z,79.10
2017-06-27T03:58:28.553Z,79.00
2017-06-27T04:00:54.592Z,79.10
2017-06-27T04:03:21.355Z,78.90
2017-06-27T04:05:47.404Z,78.90
2017-06-27T04:08:13.437Z,78.80
2017-06-27T04:10:39.489Z,78.40
2017-06-27T04:13:05.524Z,78.30
2017-06-27T04:15:31.572Z,77.90
2017-06-27T04:17:57.640Z,77.70
2017-06-27T04:20:23.682Z,77.60
2017-06-27T04:22:49.749Z,77.80
2017-06-27T04:25:15.783Z,78.10
2017-06-27T04:27:41.831Z,77.90
2017-06-27T04:30:07.904Z,77.70
2017-06-27T04:32:34.679Z,77.30
2017-06-27T04:35:00.713Z,77.30
2017-06-27T04:37:26.746Z,77.50
2017-06-27T04:39:52.772Z,77.10
2017-06-27T04:42:18.825Z,76.50
2017-06-27T04:44:44.884Z,76.10
2017-06-27T04:47:11.648Z,76.60
2017-06-27T04:49:37.704Z,76.50
2017-06-27T04:52:03.733Z,76.40
2017-06-27T04:54:30.583Z,76.40
2017-06-27T04:56:56.644Z,76.40
2017-06-27T04:59:22.764Z,76.40
2017-06-27T05:01:48.864Z,76.60
2017-06-27T05:04:15.648Z,76.40
2017-06-27T05:06:41.687Z,76.40
2017-06-27T05:09:07.714Z,76.60
2017-06-27T05:11:34.501Z,75.40
2017-06-27T05:14:00.528Z,75.30
2017-06-27T05:16:26.573Z,75.30
2017-06-27T05:18:53.337Z,75.10
2017-06-27T05:21:19.381Z,75.10
2017-06-27T05:23:45.442Z,75.20
2017-06-27T05:26:11.480Z,76.10
2017-06-27T05:28:37.516Z,74.80
2017-06-27T05:31:03.540Z,74.50
2017-06-27T05:33:30.301Z,73.80
2017-06-27T05:35:56.321Z,73.70
2017-06-27T05:38:22.364Z,73.70
2017-06-27T05:40:48.380Z,73.30
2017-06-27T05:43:15.149Z,73.50
2017-06-27T05:45:41.165Z,72.80
2017-06-27T05:48:07.232Z,71.70
2017-06-27T05:50:34.085Z,71.70
2017-06-27T05:53:00.131Z,71.40
2017-06-27T05:55:26.169Z,70.70
2017-06-27T05:57:52.973Z,69.40
2017-06-27T06:00:19.016Z,69.30
2017-06-27T06:02:45.801Z,66.70
2017-06-27T06:05:11.853Z,66.60
2017-06-27T06:07:38.621Z,67.40
2017-06-27T06:10:04.669Z,67.30
2017-06-27T06:12:30.756Z,67.00
2017-06-27T06:14:56.785Z,67.40
2017-06-27T06:17:23.623Z,67.60
2017-06-27T06:19:49.648Z,69.50
2017-06-27T06:22:15.698Z,65.90
2017-06-27T06:24:41.720Z,65.20
2017-06-27T06:27:07.746Z,64.60
2017-06-27T06:29:33.756Z,64.90
2017-06-27T06:31:59.769Z,64.10
2017-06-27T06:34:25.797Z,63.50
2017-06-27T06:36:51.812Z,63.00
2017-06-27T06:39:17.840Z,63.10
2017-06-27T06:41:43.857Z,63.00
2017-06-27T06:44:09.930Z,65.20
2017-06-27T06:46:42.873Z,62.20
2017-06-27T06:49:09.013Z,61.20
2017-06-27T06:51:35.784Z,63.20
2017-06-27T06:54:01.813Z,63.20
2017-06-27T06:56:27.840Z,61.50
2017-06-27T06:58:53.953Z,61.80
2017-06-27T07:01:19.988Z,60.10
2017-06-27T07:03:46.072Z,60.20
2017-06-27T07:06:12.848Z,61.20
2017-06-27T07:08:38.882Z,61.00
2017-06-27T07:11:04.941Z,61.20
2017-06-27T07:13:30.969Z,59.90
2017-06-27T07:16:11.969Z,59.30
2017-06-27T07:18:38.025Z,59.00
2017-06-27T07:21:04.056Z,58.20
2017-06-27T07:23:30.105Z,56.60
2017-06-27T07:25:56.905Z,58.60
2017-06-27T07:28:22.937Z,58.00
2017-06-27T07:30:49.733Z,58.60
2017-06-27T07:33:15.757Z,58.60
2017-06-27T07:35:41.801Z,58.90
2017-06-27T07:38:07.844Z,57.00
2017-06-27T07:40:33.856Z,56.50
2017-06-27T07:42:59.881Z,54.40
2017-06-27T07:45:25.906Z,55.90
2017-06-27T07:47:52.721Z,56.30
2017-06-27T07:50:18.761Z,56.00
2017-06-27T07:52:44.881Z,54.30
2017-06-27T07:55:11.640Z,53.80
2017-06-27T07:57:37.694Z,53.70
2017-06-27T08:00:03.718Z,55.20
2017-06-27T08:02:29.748Z,55.90
2017-06-27T08:04:55.799Z,56.20
2017-06-27T08:07:21.846Z,55.30
2017-06-27T08:09:47.893Z,54.70
2017-06-27T08:12:13.982Z,53.90
2017-06-27T08:14:40.077Z,52.40
2017-06-27T08:17:06.133Z,52.80
2017-06-27T08:19:32.173Z,53.70
2017-06-27T08:21:58.233Z,53.30
2017-06-27T08:24:24.272Z,53.90
2017-06-27T08:26:50.308Z,53.10
2017-06-27T08:29:17.106Z,51.10
2017-06-27T08:31:43.138Z,51.00
2017-06-27T08:34:09.934Z,51.80
2017-06-27T08:36:36.001Z,51.40
2017-06-27T08:39:02.049Z,51.10
2017-06-27T08:41:28.124Z,49.20
2017-06-27T08:43:54.177Z,49.70
2017-06-27T08:46:20.220Z,49.40
2017-06-27T08:48:46.253Z,50.10
2017-06-27T08:51:12.295Z,48.00
2017-06-27T08:53:38.396Z,48.90
2017-06-27T08:56:04.432Z,48.90
2017-06-27T08:58:30.493Z,48.70
2017-06-27T09:00:56.545Z,49.90
2017-06-27T09:03:22.608Z,49.70
2017-06-27T09:05:48.637Z,49.80
2017-06-27T09:08:14.708Z,49.80
2017-06-27T09:10:40.753Z,49.20
2017-06-27T09:13:06.777Z,51.90
2017-06-27T09:15:32.805Z,47.90
2017-06-27T09:17:58.831Z,49.20
2017-06-27T09:20:25.597Z,52.20
2017-06-27T09:22:51.616Z,51.50
2017-06-27T09:25:17.657Z,49.30
2017-06-27T09:27:43.686Z,46.30
2017-06-27T09:30:10.449Z,47.50
2017-06-27T09:32:36.505Z,47.50
2017-06-27T09:35:02.590Z,45.80
2017-06-27T09:37:28.616Z,48.00
2017-06-27T09:39:54.644Z,47.60
2017-06-27T09:42:21.413Z,44.70
2017-06-27T09:44:47.449Z,44.70
2017-06-27T09:47:13.470Z,44.50
2017-06-27T09:49:39.500Z,45.90
2017-06-27T09:52:05.526Z,45.60
2017-06-27T09:54:31.573Z,45.90
2017-06-27T09:56:57.592Z,44.70
2017-06-27T09:59:23.688Z,43.10
2017-06-27T10:01:49.720Z,45.20
2017-06-27T10:04:15.732Z,44.40
2017-06-27T10:06:41.765Z,45.70
2017-06-27T10:09:07.790Z,45.90
2017-06-27T10:11:33.831Z,45.40
2017-06-27T10:13:59.889Z,45.90
2017-06-27T10:16:26.664Z,39.10
2017-06-27T10:18:52.709Z,39.10
2017-06-27T10:21:19.489Z,37.70
2017-06-27T10:23:45.504Z,37.40
2017-06-27T10:26:11.525Z,35.20
2017-06-27T10:28:37.540Z,36.80
2017-06-27T10:31:03.561Z,35.50
2017-06-27T10:33:29.576Z,35.00
2017-06-27T10:35:55.601Z,36.60
2017-06-27T10:38:21.642Z,40.20
2017-06-27T10:40:47.677Z,37.50
2017-06-27T10:43:13.705Z,32.70
2017-06-27T10:45:39.744Z,33.20
2017-06-27T10:48:05.764Z,36.70
2017-06-27T10:50:31.794Z,35.60
2017-06-27T10:52:57.809Z,32.10
2017-06-27T10:55:23.854Z,33.00
2017-06-27T10:57:50.654Z,29.70
2017-06-27T11:00:16.688Z,29.10
2017-06-27T11:02:43.467Z,29.60
2017-06-27T11:05:09.517Z,29.70
2017-06-27T11:07:35.557Z,27.70
2017-06-27T11:10:01.585Z,28.40
2017-06-27T11:12:27.625Z,28.60
2017-06-27T11:14:53.652Z,28.80
2017-06-27T11:17:19.732Z,31.80
2017-06-27T11:19:45.797Z,30.10
2017-06-27T11:22:11.842Z,31.40
2017-06-27T11:24:37.865Z,30.40
2017-06-27T11:27:03.900Z,31.20
2017-06-27T11:29:29.938Z,30.40
2017-06-27T11:31:55.968Z,38.00
2017-06-27T11:34:21.996Z,34.10
2017-06-27T11:36:48.049Z,30.60
2017-06-27T11:39:14.817Z,35.90
2017-06-27T11:41:40.845Z,35.90
2017-06-27T11:44:06.881Z,31.80
2017-06-27T11:46:32.917Z,33.20
2017-06-27T11:48:58.948Z,31.20
2017-06-27T11:51:25.022Z,33.30
2017-06-27T11:53:51.785Z,33.90
2017-06-27T11:56:17.848Z,33.90
2017-06-27T11:58:44.625Z,33.50
2017-06-27T12:01:23.060Z,33.50
2017-06-27T12:04:01.440Z,34.90
2017-06-27T12:06:32.520Z,36.50
2017-06-27T12:08:58.564Z,32.10
2017-06-27T12:11:24.573Z,32.00
2017-06-27T12:13:50.605Z,29.40
2017-06-27T12:16:16.639Z,29.20
2017-06-27T12:18:42.704Z,29.00
2017-06-27T12:21:08.733Z,30.90
2017-06-27T12:23:34.757Z,27.60
2017-06-27T12:26:01.513Z,30.60
2017-06-27T12:28:27.544Z,30.60
2017-06-27T12:30:53.593Z,28.40
2017-06-27T12:33:20.369Z,31.00
2017-06-27T12:35:46.380Z,30.60
2017-06-27T12:38:12.414Z,31.30
2017-06-27T12:40:38.461Z,27.40
2017-06-27T12:43:04.489Z,29.50
2017-06-27T12:45:30.501Z,31.90
2017-06-27T12:47:56.560Z,33.00
2017-06-27T12:50:22.601Z,34.40
2017-06-27T12:52:49.393Z,35.60
2017-06-27T12:55:15.426Z,35.60
2017-06-27T12:57:42.213Z,31.80
2017-06-27T13:00:08.236Z,31.80
2017-06-27T13:02:34.260Z,33.60
2017-06-27T13:05:01.040Z,34.30
2017-06-27T13:07:27.114Z,34.40
2017-06-27T13:09:53.249Z,36.00
2017-06-27T13:12:19.320Z,32.90
2017-06-27T13:14:46.094Z,33.80
2017-06-27T13:17:12.133Z,33.70
2017-06-27T13:19:38.160Z,32.70
2017-06-27T13:22:04.920Z,29.10
2017-06-27T13:24:30.964Z,28.70
2017-06-27T13:26:57.009Z,29.20
2017-06-27T13:29:23.784Z,27.80
2017-06-27T13:31:49.817Z,27.70
2017-06-27T13:34:15.877Z,27.50
2017-06-27T13:36:41.910Z,26.70
2017-06-27T13:39:07.966Z,27.00
2017-06-27T13:41:33.992Z,29.80
2017-06-27T13:44:00.029Z,31.10
2017-06-27T13:46:26.079Z,29.60
2017-06-27T13:48:52.146Z,30.50
2017-06-27T13:51:18.497Z,29.00
2017-06-27T13:53:44.605Z,28.50
2017-06-27T13:56:10.644Z,28.50
2017-06-27T13:58:37.435Z,27.00
2017-06-27T14:01:03.479Z,27.00
2017-06-27T14:03:29.508Z,29.00
2017-06-27T14:05:55.555Z,28.90
2017-06-27T14:08:21.588Z,29.60
2017-06-27T14:10:47.637Z,26.90
2017-06-27T14:13:13.734Z,28.10
2017-06-27T14:15:39.773Z,29.00
2017-06-27T14:18:05.801Z,27.70
2017-06-27T14:20:31.843Z,29.10
2017-06-27T14:22:58.610Z,27.70
2017-06-27T14:25:24.652Z,27.70
2017-06-27T14:27:50.685Z,27.60
2017-06-27T14:30:17.456Z,25.50
2017-06-27T14:32:43.485Z,25.50
2017-06-27T14:35:09.563Z,24.90
2017-06-27T14:37:35.601Z,26.40
2017-06-27T14:40:01.646Z,25.00
2017-06-27T14:42:28.423Z,25.30
2017-06-27T14:44:54.471Z,25.30
2017-06-27T14:47:28.383Z,25.30
2017-06-27T14:49:54.440Z,25.30
2017-06-27T14:52:20.492Z,25.50
2017-06-27T14:54:47.267Z,24.20
2017-06-27T14:57:13.325Z,24.60
2017-06-27T14:59:39.377Z,23.40
2017-06-27T15:02:05.438Z,24.40
2017-06-27T15:04:32.256Z,26.70
2017-06-27T15:06:58.299Z,26.60
2017-06-27T15:09:24.361Z,27.50
2017-06-27T15:11:50.411Z,26.10
2017-06-27T15:14:16.445Z,29.00
2017-06-27T15:16:42.497Z,26.00
2017-06-27T15:19:09.273Z,27.20
2017-06-27T15:21:35.333Z,27.50
2017-06-27T15:24:01.381Z,28.40
2017-06-27T15:26:27.425Z,28.30
2017-06-27T15:28:53.490Z,28.00
2017-06-27T15:31:19.565Z,29.00
2017-06-27T15:33:45.639Z,29.60
2017-06-27T15:36:11.685Z,30.20
2017-06-27T15:38:37.741Z,31.60
2017-06-27T15:41:03.813Z,31.40
2017-06-27T15:43:30.630Z,28.70
2017-06-27T15:45:56.688Z,28.60
2017-06-27T15:48:22.740Z,30.30
2017-06-27T15:50:48.812Z,29.40
2017-06-27T15:53:14.909Z,30.00
2017-06-27T15:55:41.117Z,29.90
2017-06-27T15:58:07.185Z,30.80
2017-06-27T16:00:33.908Z,33.10
2017-06-27T16:03:00.155Z,35.60
2017-06-27T16:05:26.245Z,36.10
2017-06-27T16:07:52.315Z,37.20
2017-06-27T16:10:18.356Z,36.60
2017-06-27T16:12:44.377Z,37.60
2017-06-27T16:15:11.165Z,39.40
2017-06-27T16:17:37.578Z,39.40
2017-06-27T16:20:03.677Z,39.70
2017-06-27T16:22:29.761Z,41.70
2017-06-27T16:24:55.905Z,40.40
2017-06-27T16:27:21.945Z,41.60
2017-06-27T16:29:47.999Z,39.60
2017-06-27T16:32:14.064Z,40.00
2017-06-27T16:34:40.206Z,42.20
2017-06-27T16:37:13.095Z,41.70
2017-06-27T16:39:39.125Z,42.50
2017-06-27T16:42:05.177Z,42.30
2017-06-27T16:44:32.025Z,42.60
2017-06-27T16:46:58.125Z,41.80
2017-06-27T16:49:24.185Z,42.70
2017-06-27T16:51:50.241Z,42.90
2017-06-27T16:54:17.033Z,43.80
2017-06-27T16:56:43.083Z,43.80
2017-06-27T16:59:09.885Z,44.00
2017-06-27T17:01:35.949Z,43.90
2017-06-27T17:04:01.977Z,44.30
2017-06-27T17:06:28.028Z,44.50
2017-06-27T17:08:54.065Z,44.70
2017-06-27T17:11:20.087Z,44.80
2017-06-27T17:13:46.138Z,44.70
2017-06-27T17:16:12.201Z,44.70
2017-06-27T17:18:38.289Z,44.80
2017-06-27T17:21:04.333Z,44.40
2017-06-27T17:23:30.400Z,43.80
2017-06-27T17:25:56.444Z,45.10
2017-06-27T17:28:22.464Z,44.50
2017-06-27T17:30:48.489Z,44.60
2017-06-27T17:33:14.527Z,44.80
2017-06-27T17:35:41.301Z,45.50
2017-06-27T17:38:07.356Z,45.20
2017-06-27T17:40:34.179Z,46.20
2017-06-27T17:43:00.218Z,45.50
2017-06-27T17:45:26.261Z,45.30
2017-06-27T17:47:52.284Z,45.80
2017-06-27T17:50:18.333Z,46.60
2017-06-27T17:52:45.105Z,46.20
2017-06-27T17:55:11.192Z,46.00
2017-06-27T17:57:37.226Z,46.50
2017-06-27T18:00:03.317Z,47.10
2017-06-27T18:02:29.372Z,47.10
2017-06-27T18:04:55.436Z,46.80
2017-06-27T18:07:21.485Z,47.50
2017-06-27T18:09:47.531Z,48.00
2017-06-27T18:12:13.605Z,47.80
2017-06-27T18:14:39.642Z,47.80
2017-06-27T18:17:05.736Z,48.50
2017-06-27T18:19:32.536Z,49.10
2017-06-27T18:21:58.580Z,49.10
2017-06-27T18:24:25.388Z,48.10
2017-06-27T18:26:51.429Z,48.10
2017-06-27T18:29:17.461Z,48.40
2017-06-27T18:31:43.513Z,48.10
2017-06-27T18:34:09.537Z,48.20
2017-06-27T18:36:36.356Z,48.20
2017-06-27T18:39:02.508Z,48.10
2017-06-27T18:41:28.584Z,48.70
2017-06-27T18:43:54.615Z,48.60
2017-06-27T18:46:20.689Z,48.90
2017-06-27T18:48:46.845Z,50.40
2017-06-27T18:51:12.937Z,51.20
2017-06-27T18:53:38.972Z,50.10
2017-06-27T18:56:05.012Z,49.50
2017-06-27T18:58:31.067Z,49.90
2017-06-27T19:00:57.154Z,49.60
2017-06-27T19:03:23.184Z,50.60
2017-06-27T19:05:49.221Z,50.00
2017-06-27T19:08:15.280Z,49.30
2017-06-27T19:10:42.080Z,49.50
2017-06-27T19:13:08.125Z,49.60
2017-06-27T19:15:34.992Z,48.80
2017-06-27T19:18:01.077Z,49.00
2017-06-27T19:20:27.141Z,49.40
2017-06-27T19:22:53.217Z,49.20
2017-06-27T19:25:19.269Z,49.70
2017-06-27T19:27:45.352Z,49.70
2017-06-27T19:30:11.397Z,50.00
2017-06-27T19:32:37.433Z,50.10
2017-06-27T19:35:03.460Z,50.10
2017-06-27T19:37:29.488Z,50.10
2017-06-27T19:39:55.551Z,50.70
2017-06-27T19:42:22.316Z,50.80
2017-06-27T19:44:48.405Z,50.70
2017-06-27T19:47:14.469Z,50.70
2017-06-27T19:49:40.630Z,51.40
2017-06-27T19:52:06.653Z,51.90
2017-06-27T19:54:32.688Z,52.60
2017-06-27T19:56:58.757Z,53.00
2017-06-27T19:59:24.806Z,54.60
2017-06-27T20:01:50.845Z,56.00
2017-06-27T20:04:16.909Z,56.20
2017-06-27T20:06:42.993Z,56.20
2017-06-27T20:09:09.025Z,57.10
2017-06-27T20:11:35.060Z,57.00
2017-06-27T20:14:01.101Z,57.20
2017-06-27T20:16:27.176Z,57.90
2017-06-27T20:18:53.201Z,58.40
2017-06-27T20:21:19.233Z,58.70
2017-06-27T20:23:45.284Z,60.00
2017-06-27T20:26:11.325Z,59.90
2017-06-27T20:28:38.106Z,61.80
2017-06-27T20:31:04.132Z,61.70
2017-06-27T20:33:30.188Z,62.30
2017-06-27T20:35:56.214Z,61.70
2017-06-27T20:38:22.269Z,61.20
2017-06-27T20:40:48.313Z,60.90
2017-06-27T20:43:14.333Z,61.20
2017-06-27T20:45:40.400Z,60.90
2017-06-27T20:48:06.440Z,61.80
2017-06-27T20:50:32.493Z,62.40
2017-06-27T20:52:58.590Z,61.50
2017-06-27T20:55:24.657Z,62.00
2017-06-27T20:57:50.744Z,62.40
2017-06-27T21:00:16.796Z,61.90
2017-06-27T21:02:42.860Z,61.80
2017-06-27T21:05:08.901Z,61.70
2017-06-27T21:07:35.688Z,61.90
2017-06-27T21:10:02.454Z,61.90
2017-06-27T21:12:28.509Z,62.60
2017-06-27T21:14:54.555Z,62.40
2017-06-27T21:17:21.364Z,63.10
2017-06-27T21:19:47.421Z,63.10
2017-06-27T21:22:13.452Z,62.50
2017-06-27T21:24:39.505Z,62.90
2017-06-27T21:27:05.528Z,62.50
2017-06-27T21:29:32.326Z,63.60
2017-06-27T21:31:58.356Z,63.60
2017-06-27T21:34:25.156Z,65.00
2017-06-27T21:36:51.213Z,64.90
2017-06-27T21:39:17.253Z,65.50
2017-06-27T21:41:43.288Z,66.30
2017-06-27T21:44:09.324Z,67.00
2017-06-27T21:46:36.137Z,65.80
2017-06-27T21:49:02.167Z,65.80
2017-06-27T21:51:29.001Z,67.30
2017-06-27T21:53:55.061Z,67.20
2017-06-27T21:56:21.110Z,67.10
2017-06-27T21:58:47.153Z,66.50
2017-06-27T22:01:13.184Z,66.30
2017-06-27T22:03:39.228Z,67.50
2017-06-27T22:06:05.269Z,67.50
2017-06-27T22:08:31.337Z,66.30
2017-06-27T22:10:57.373Z,66.70
2017-06-27T22:13:23.397Z,66.90
2017-06-27T22:15:49.425Z,66.50
2017-06-27T22:18:15.470Z,67.90
2017-06-27T22:20:42.269Z,70.50
2017-06-27T22:23:08.309Z,70.50
2017-06-27T22:25:35.080Z,71.70
2017-06-27T22:28:01.145Z,71.70
2017-06-27T22:30:27.929Z,73.40
2017-06-27T22:32:53.994Z,73.30
2017-06-27T22:35:20.830Z,72.70
2017-06-27T22:37:46.868Z,72.70
2017-06-27T22:40:12.925Z,73.60
2017-06-27T22:42:39.702Z,74.60
2017-06-27T22:45:05.776Z,74.00
2017-06-27T22:47:31.816Z,74.00
2017-06-27T22:49:57.890Z,73.80
2017-06-27T22:52:23.930Z,73.80
2017-06-27T22:54:50.716Z,74.70
2017-06-27T22:57:16.760Z,74.30
2017-06-27T22:59:42.813Z,74.30
2017-06-27T23:02:08.877Z,75.50
2017-06-27T23:04:34.936Z,75.60
2017-06-27T23:07:00.969Z,75.70
2017-06-27T23:09:27.742Z,76.40
2017-06-27T23:11:53.776Z,76.50
2017-06-27T23:14:19.832Z,75.70
2017-06-27T23:16:45.876Z,76.00
2017-06-27T23:19:11.897Z,76.10
2017-06-27T23:21:37.964Z,76.80
2017-06-27T23:24:10.881Z,76.30
2017-06-27T23:26:36.982Z,76.70
2017-06-27T23:29:03.053Z,76.50
2017-06-27T23:31:29.096Z,76.50
2017-06-27T23:33:55.118Z,76.50
2017-06-27T23:36:21.149Z,77.10
2017-06-27T23:38:47.940Z,77.10
2017-06-27T23:41:13.979Z,76.70
2017-06-27T23:43:40.760Z,75.40
2017-06-27T23:46:06.793Z,75.40
2017-06-27T23:48:32.854Z,75.50
2017-06-27T23:50:58.873Z,75.30
2017-06-27T23:53:24.909Z,75.80
2017-06-27T23:55:50.917Z,75.60
2017-06-27T23:58:16.972Z,74.90
